Terminal Aerodrome Forecast
Issued by NWS Jackson, KY

Home | Current Version | Previous Version | Text Only | Print | Product List | Glossary On
Versions: 1 2 3 4 5 6 7 8 9 10 11 12 13 14 15 16 17 18 19 20 21 22 23 24
000
FTUS43 KJKL 181700
TAFJKL
TAF
KJKL 181727Z 1818/1918 VRB03KT 3SM -RA BR BKN006 OVC012
     FM182100 VRB03KT P6SM BKN019 BKN035
     FM190400 00000KT 1SM BR OVC009
     FM190600 00000KT 1/4SM FG OVC002
     FM191300 VRB03KT 2SM BR OVC004
     FM191500 VRB03KT P6SM OVC015=

USA.gov is the U.S. government's official web portal to all federal, state and local government web resources and services.